Avondale, Missouri
Current Conditions -  °F | °C
As of 2:22 PM on Thursday 23 Oct 2014 (Local Time) from KMKC Reporting Station
Overcast Overcast  
Wind Chill: 18°   Ceiling: 1400
Heat Index: 18°   Visibility: 7mi
Dew Point: 15°   Wind: 8mph
Humidity: 81%   Direction: 220°SW
Pressure: 30.06"   Gusts: NA
Location:  39.1657°N, 94.5231°W
Report Text: KMKC 231922Z 22007KT 7SM OVC014 18/15 A3006 RMK AO2 T01830150
Loading
Personal Weather Stations






























Interactive Weather Map
Tropical Storm Tracking
New forecast layout! Learn more

10-Day Weather Forecast

Advertisements
Track Severe Weather on mobile